createdAt,value
2022-12-31T00:01:55.741Z,14.92
2022-12-31T00:06:57.694Z,14.62
2022-12-31T00:11:59.480Z,13.76
2022-12-31T00:17:01.136Z,15.40
2022-12-31T00:22:02.930Z,14.65
2022-12-31T00:27:04.599Z,14.79
2022-12-31T00:32:06.258Z,13.82
2022-12-31T00:37:07.917Z,15.08
2022-12-31T00:42:09.705Z,15.99
2022-12-31T00:47:11.415Z,15.96
2022-12-31T00:52:15.900Z,14.67
2022-12-31T00:57:17.774Z,13.92
2022-12-31T01:02:19.660Z,14.27
2022-12-31T01:07:21.509Z,14.96
2022-12-31T01:12:25.196Z,15.62
2022-12-31T01:17:26.994Z,14.97
2022-12-31T01:22:28.691Z,16.79
2022-12-31T01:27:30.355Z,16.85
2022-12-31T01:32:32.003Z,15.45
2022-12-31T01:37:33.725Z,15.92
2022-12-31T01:42:35.414Z,16.55
2022-12-31T01:47:42.301Z,15.10
2022-12-31T01:52:49.978Z,16.54
2022-12-31T01:57:57.265Z,16.13
2022-12-31T02:02:59.457Z,16.59
2022-12-31T02:08:03.277Z,16.01
2022-12-31T02:13:05.491Z,16.73
2022-12-31T02:18:35.150Z,15.76
2022-12-31T02:23:39.464Z,15.91
2022-12-31T02:29:18.435Z,16.70
2022-12-31T02:34:31.502Z,17.46
2022-12-31T02:39:35.915Z,16.37
2022-12-31T02:44:40.318Z,14.87
2022-12-31T02:50:06.165Z,15.52
2022-12-31T02:55:42.255Z,16.85
2022-12-31T03:01:13.226Z,15.58
2022-12-31T03:06:15.406Z,17.56
2022-12-31T03:11:37.087Z,16.82
2022-12-31T03:16:38.745Z,15.75
2022-12-31T03:21:58.945Z,16.19
2022-12-31T03:27:00.572Z,16.09
2022-12-31T03:32:02.384Z,17.01
2022-12-31T03:37:04.182Z,16.14
2022-12-31T03:42:05.932Z,15.45
2022-12-31T03:47:07.585Z,16.96
2022-12-31T03:52:09.443Z,17.72
2022-12-31T03:57:11.198Z,16.85
2022-12-31T04:02:13.078Z,16.36
2022-12-31T04:07:14.846Z,15.56
2022-12-31T04:12:16.713Z,16.00
2022-12-31T04:17:18.462Z,16.59
2022-12-31T04:22:20.473Z,16.87
2022-12-31T04:27:22.101Z,17.57
2022-12-31T04:32:23.846Z,16.00
2022-12-31T04:37:25.734Z,17.24
2022-12-31T04:42:27.584Z,17.17
2022-12-31T04:47:29.250Z,16.12
2022-12-31T04:52:30.907Z,17.70
2022-12-31T04:57:33.521Z,16.52
2022-12-31T05:02:35.360Z,17.45
2022-12-31T05:07:37.087Z,17.07
2022-12-31T05:12:38.920Z,15.65
2022-12-31T05:17:40.614Z,17.04
2022-12-31T05:22:42.365Z,18.18
2022-12-31T05:27:45.400Z,17.79
2022-12-31T05:32:47.412Z,17.58
2022-12-31T05:37:49.139Z,17.85
2022-12-31T05:42:50.869Z,16.73
2022-12-31T05:47:52.689Z,15.58
2022-12-31T05:52:54.518Z,17.25
2022-12-31T05:57:56.300Z,16.73
2022-12-31T06:02:58.187Z,17.05
2022-12-31T06:07:59.895Z,15.54
2022-12-31T06:13:01.688Z,16.19
2022-12-31T06:18:03.510Z,17.17
2022-12-31T06:23:05.741Z,16.35
2022-12-31T06:28:07.428Z,16.71
2022-12-31T06:33:09.045Z,17.10
2022-12-31T06:38:10.844Z,16.15
2022-12-31T06:43:12.543Z,17.13
2022-12-31T06:48:14.628Z,15.94
2022-12-31T06:53:16.294Z,15.77
2022-12-31T06:58:18.238Z,17.63
2022-12-31T07:03:28.862Z,16.11
2022-12-31T07:08:30.569Z,15.07
2022-12-31T07:14:03.222Z,16.65
2022-12-31T07:19:38.979Z,17.38
2022-12-31T07:24:41.330Z,17.00
2022-12-31T07:29:54.338Z,16.60
2022-12-31T07:35:10.987Z,18.62
2022-12-31T07:40:24.124Z,16.94
2022-12-31T07:45:57.448Z,16.87
2022-12-31T07:50:59.529Z,17.51
2022-12-31T07:56:02.833Z,17.36
2022-12-31T08:01:05.530Z,18.50
2022-12-31T08:06:25.245Z,17.22
2022-12-31T08:11:54.739Z,17.92
2022-12-31T08:16:57.401Z,17.32
2022-12-31T08:22:04.959Z,17.14
2022-12-31T08:27:29.748Z,18.35
2022-12-31T08:32:48.887Z,17.33
2022-12-31T08:38:08.842Z,15.96
2022-12-31T08:43:30.341Z,17.18
2022-12-31T08:48:43.498Z,16.65
2022-12-31T08:53:45.701Z,18.24
2022-12-31T08:59:14.936Z,17.94
2022-12-31T09:04:45.492Z,17.03
2022-12-31T09:10:24.796Z,17.58
2022-12-31T09:15:33.895Z,17.90
2022-12-31T09:20:44.712Z,18.25
2022-12-31T09:26:08.615Z,18.08
2022-12-31T09:31:26.832Z,18.70
2022-12-31T09:36:34.488Z,19.89
2022-12-31T09:41:36.140Z,18.99
2022-12-31T09:46:52.938Z,18.27
2022-12-31T09:52:17.703Z,18.77
2022-12-31T09:57:34.894Z,17.49
2022-12-31T10:03:07.527Z,18.26
2022-12-31T10:08:33.878Z,17.41
2022-12-31T10:14:01.676Z,17.49
2022-12-31T10:19:18.488Z,17.57
2022-12-31T10:24:20.049Z,17.24
2022-12-31T10:29:57.249Z,19.91
2022-12-31T10:35:36.553Z,18.07
2022-12-31T10:41:20.048Z,18.81
2022-12-31T10:46:54.949Z,18.20
2022-12-31T10:52:13.155Z,17.64
2022-12-31T10:57:38.917Z,18.89
2022-12-31T11:06:41.374Z,14.65
2022-12-31T11:12:01.766Z,15.75
2022-12-31T11:17:19.093Z,15.71
2022-12-31T11:22:38.752Z,16.86
2022-12-31T11:28:20.103Z,16.53
2022-12-31T11:33:27.645Z,16.98
2022-12-31T11:38:33.528Z,16.64
2022-12-31T11:43:54.736Z,16.37
2022-12-31T11:49:12.130Z,16.87
2022-12-31T11:54:32.154Z,17.09
2022-12-31T11:59:33.881Z,17.02
2022-12-31T12:04:35.575Z,15.80
2022-12-31T12:09:37.316Z,17.34
2022-12-31T12:14:41.224Z,18.02
2022-12-31T12:19:45.927Z,17.16
2022-12-31T12:25:15.971Z,17.64
2022-12-31T12:30:27.259Z,17.53
2022-12-31T12:35:34.799Z,18.94
2022-12-31T12:40:36.579Z,17.55
2022-12-31T12:45:51.845Z,16.89
2022-12-31T12:50:54.244Z,18.42
2022-12-31T12:56:27.639Z,17.76
2022-12-31T13:01:41.684Z,17.83
2022-12-31T13:06:46.084Z,18.18
2022-12-31T13:12:12.657Z,17.34
2022-12-31T13:17:40.257Z,18.79
2022-12-31T13:23:14.756Z,18.13
2022-12-31T13:28:18.222Z,17.67
2022-12-31T13:33:24.526Z,17.91
2022-12-31T13:38:29.104Z,17.94
2022-12-31T13:43:48.877Z,18.06
2022-12-31T13:49:25.058Z,18.20
2022-12-31T13:54:43.281Z,18.54
2022-12-31T13:59:51.784Z,18.98
2022-12-31T14:05:00.245Z,18.98
2022-12-31T14:10:01.952Z,17.90
2022-12-31T14:15:23.718Z,17.95
2022-12-31T14:20:40.297Z,18.88
2022-12-31T14:25:49.714Z,17.50
2022-12-31T14:31:00.442Z,17.28
2022-12-31T14:36:11.981Z,17.15
2022-12-31T14:41:35.493Z,17.13
2022-12-31T14:47:01.891Z,16.74
2022-12-31T14:52:23.362Z,16.51
2022-12-31T14:57:27.353Z,17.06
2022-12-31T15:02:34.875Z,18.26
2022-12-31T15:08:17.193Z,18.08
2022-12-31T15:13:38.575Z,18.35
2022-12-31T15:19:17.215Z,17.37
2022-12-31T15:24:24.616Z,17.10
2022-12-31T15:29:37.069Z,17.78
2022-12-31T15:34:38.705Z,17.42
2022-12-31T15:39:42.780Z,16.95
2022-12-31T15:45:02.662Z,17.44
2022-12-31T15:50:07.984Z,16.76
2022-12-31T15:55:22.362Z,18.90
2022-12-31T16:00:24.536Z,17.15
2022-12-31T16:05:27.959Z,17.24
2022-12-31T16:10:32.030Z,17.15
2022-12-31T16:15:34.373Z,18.75
2022-12-31T16:20:42.493Z,18.37
2022-12-31T16:25:45.047Z,18.01
2022-12-31T16:30:58.337Z,16.39
2022-12-31T16:36:01.862Z,17.12
2022-12-31T16:41:03.528Z,16.98
2022-12-31T16:46:28.849Z,16.63
2022-12-31T16:51:33.157Z,16.50
2022-12-31T16:56:38.510Z,17.20
2022-12-31T17:01:41.703Z,17.49
2022-12-31T17:06:44.086Z,17.75
2022-12-31T17:11:58.001Z,19.12
2022-12-31T17:17:03.570Z,18.71
2022-12-31T17:22:31.594Z,19.02
2022-12-31T17:27:36.712Z,18.43
2022-12-31T17:32:38.530Z,18.53
2022-12-31T17:37:40.128Z,19.78
2022-12-31T17:42:42.209Z,19.04
2022-12-31T17:47:48.215Z,17.26
2022-12-31T17:52:50.461Z,17.89
2022-12-31T17:57:55.649Z,17.68
2022-12-31T18:02:57.290Z,18.22
2022-12-31T18:07:59.049Z,18.64
2022-12-31T18:13:01.907Z,18.46
2022-12-31T18:18:25.181Z,17.67
2022-12-31T18:23:30.868Z,17.55
2022-12-31T18:28:32.648Z,18.93
2022-12-31T18:33:34.301Z,16.32
2022-12-31T18:38:35.960Z,15.60
2022-12-31T18:43:37.570Z,17.43
2022-12-31T18:48:41.455Z,16.99
2022-12-31T18:53:43.368Z,17.66
2022-12-31T18:58:46.177Z,17.74
2022-12-31T19:03:47.850Z,17.54
2022-12-31T19:08:49.630Z,17.14
2022-12-31T19:19:06.780Z,16.87
2022-12-31T19:24:23.660Z,17.60
2022-12-31T19:29:27.299Z,18.78
2022-12-31T19:34:29.050Z,18.80
2022-12-31T19:39:30.799Z,19.22
2022-12-31T19:44:32.559Z,18.51
2022-12-31T19:49:34.325Z,17.94
2022-12-31T19:54:36.054Z,18.94
2022-12-31T19:59:37.860Z,18.96
2022-12-31T20:04:39.676Z,18.28
2022-12-31T20:09:41.500Z,17.50
2022-12-31T20:14:44.100Z,16.61
2022-12-31T20:19:45.937Z,17.25
2022-12-31T20:24:47.700Z,18.14
2022-12-31T20:29:49.580Z,18.34
2022-12-31T20:34:51.446Z,18.47
2022-12-31T20:39:53.241Z,17.77
2022-12-31T20:44:55.084Z,17.98
2022-12-31T20:50:12.828Z,17.91
2022-12-31T20:55:15.254Z,18.54
2022-12-31T21:00:17.639Z,17.35
2022-12-31T21:05:19.610Z,15.80
2022-12-31T21:10:21.658Z,15.96
2022-12-31T21:15:23.402Z,16.22
2022-12-31T21:20:25.266Z,18.47
2022-12-31T21:25:27.056Z,15.98
2022-12-31T21:30:28.880Z,16.55
2022-12-31T21:35:43.411Z,16.47
2022-12-31T21:40:47.412Z,16.05
2022-12-31T21:46:00.497Z,16.90
2022-12-31T21:51:08.570Z,17.65
2022-12-31T21:56:11.485Z,18.89
2022-12-31T22:01:38.004Z,15.59
2022-12-31T22:06:39.806Z,16.10
2022-12-31T22:11:42.078Z,14.99
2022-12-31T22:16:43.767Z,15.62
2022-12-31T22:21:45.592Z,15.29
2022-12-31T22:26:47.203Z,16.75
2022-12-31T22:31:49.109Z,16.44
2022-12-31T22:36:50.861Z,17.08
2022-12-31T22:41:52.523Z,16.80
2022-12-31T22:46:55.348Z,17.16
2022-12-31T22:52:00.757Z,16.91
2022-12-31T22:57:05.027Z,17.12
2022-12-31T23:02:07.080Z,17.34
2022-12-31T23:07:08.821Z,17.75
2022-12-31T23:12:11.204Z,16.49
2022-12-31T23:17:40.575Z,17.83
2022-12-31T23:23:00.723Z,17.88
2022-12-31T23:28:02.614Z,15.87
2022-12-31T23:33:04.387Z,15.66
2022-12-31T23:38:06.164Z,15.95
2022-12-31T23:43:08.907Z,17.53
2022-12-31T23:48:10.719Z,15.00
2022-12-31T23:53:12.628Z,15.20
2022-12-31T23:58:14.866Z,15.16
